Aviation Digital Data Service (ADDS)

Output produced by METARs form (1108 UTC 19 February 2019)
found at http://www.aviationweather.gov/metar/data/
 
Forecast for: KSMO (SANTA MONICA , CA, US)
Text: KSMO 190535Z 1906/2006 36010KT P6SM SKC
Forecast period: 0600 to 1500 UTC 19 February 2019
Forecast type: FROM: standard forecast or significant change
Winds: from the N (360 degrees) at 12 MPH (10 knots; 5.1 m/s)
Visibility: 6 or more miles 10+ km)
Clouds: clear skies
Weather: no significant weather forecast for this period
Text: FM191500 VRB03KT P6SM SKC
Forecast period: 1500 to 2000 UTC 19 February 2019
Forecast type: FROM: standard forecast or significant change
Winds: variable direction winds at 3 MPH (3 knots; 1.5 m/s)
Visibility: 6 or more miles 10+ km)
Clouds: clear skies
Weather: no significant weather forecast for this period
Text: FM192000 24008KT P6SM SKC
Forecast period: 2000 UTC 19 February 2019 to 0300 UTC 20 February 2019
Forecast type: FROM: standard forecast or significant change
Winds: from the WSW (240 degrees) at 9 MPH (8 knots; 4.1 m/s)
Visibility: 6 or more miles 10+ km)
Clouds: clear skies
Weather: no significant weather forecast for this period
Text: FM200300 VRB03KT P6SM SKC
Forecast period: 0300 to 0600 UTC 20 February 2019
Forecast type: FROM: standard forecast or significant change
Winds: variable direction winds at 3 MPH (3 knots; 1.5 m/s)
Visibility: 6 or more miles 10+ km)
Clouds: clear skies
Weather: no significant weather forecast for this period